Time;durP1;ratioP1;P1;durP2;ratioP2;P2;SDS_P1;SDS_P2;PMS_P1;PMS_P2;Temp;Humidity;BMP_temperature;BMP_pressure;BME280_temperature;BME280_humidity;BME280_pressure;Samples;Min_cycle;Max_cycle;Signal;HPM_P1;HPM_P2
2023/10/12 00:00:24;;;;;;;16.93;11.13;;;;;;;;;;5034499;28;20278;-52
2023/10/12 00:02:45;;;;;;;13.17;10.23;;;;;;;;;;5034145;28;20235;-52
2023/10/12 00:05:17;;;;;;;14.13;10.67;;;;;;;;;;5034093;28;20197;-53
2023/10/12 00:07:45;;;;;;;14.87;10.93;;;;;;;;;;5030231;28;20558;-54
2023/10/12 00:12:44;;;;;;;12.67;10.33;;;;;;;;;;5034036;28;20243;-55
2023/10/12 00:15:25;;;;;;;15.80;11.30;;;;;;;;;;5033720;28;20205;-54
2023/10/12 00:17:52;;;;;;;14.60;10.50;;;;;;;;;;5034170;28;20205;-54
2023/10/12 00:20:21;;;;;;;16.40;11.37;;;;;;;;;;5034052;28;20216;-54
2023/10/12 00:22:48;;;;;;;14.03;10.73;;;;;;;;;;5033881;28;20228;-54
2023/10/12 00:25:17;;;;;;;14.97;11.07;;;;;;;;;;5033748;28;20197;-54
2023/10/12 00:27:43;;;;;;;12.63;10.33;;;;;;;;;;5033649;28;20276;-54
2023/10/12 00:30:09;;;;;;;15.03;11.13;;;;;;;;;;5033568;28;20201;-54
2023/10/12 00:32:37;;;;;;;13.73;11.20;;;;;;;;;;5033632;28;20593;-53
2023/10/12 00:35:04;;;;;;;15.37;11.50;;;;;;;;;;5033560;28;20279;-52
2023/10/12 00:37:32;;;;;;;16.07;11.53;;;;;;;;;;5033497;28;20209;-53
2023/10/12 00:39:58;;;;;;;13.30;11.33;;;;;;;;;;5033273;28;20244;-52
2023/10/12 00:42:32;;;;;;;14.77;11.77;;;;;;;;;;5033149;28;20287;-52
2023/10/12 00:45:05;;;;;;;20.37;13.40;;;;;;;;;;5033438;28;20228;-53
2023/10/12 00:47:44;;;;;;;13.23;10.93;;;;;;;;;;5033401;28;20213;-53
2023/10/12 00:50:12;;;;;;;17.67;12.17;;;;;;;;;;5033239;28;20205;-52
2023/10/12 00:52:46;;;;;;;16.00;12.10;;;;;;;;;;5033242;28;20247;-53
2023/10/12 00:55:23;;;;;;;13.23;11.93;;;;;;;;;;5032998;28;20559;-53
2023/10/12 00:57:52;;;;;;;14.57;12.80;;;;;;;;;;5033190;28;20223;-54
2023/10/12 01:00:18;;;;;;;20.13;12.90;;;;;;;;;;5033011;28;20200;-53
2023/10/12 01:03:06;;;;;;;18.60;13.10;;;;;;;;;;5032779;28;20787;-53
2023/10/12 01:05:35;;;;;;;19.73;13.53;;;;;;;;;;5032836;28;20196;-53
2023/10/12 01:08:02;;;;;;;17.17;13.03;;;;;;;;;;5032916;28;20741;-54
2023/10/12 01:10:31;;;;;;;17.13;14.17;;;;;;;;;;5032939;28;20292;-54
2023/10/12 01:13:00;;;;;;;17.80;13.13;;;;;;;;;;5032724;28;20200;-53
2023/10/12 01:15:29;;;;;;;15.77;13.97;;;;;;;;;;5032623;28;20611;-53
2023/10/12 01:17:56;;;;;;;24.10;16.30;;;;;;;;;;5032690;28;20189;-52
2023/10/12 01:20:26;;;;;;;20.17;14.43;;;;;;;;;;5032505;28;20266;-53
2023/10/12 01:22:54;;;;;;;18.87;14.80;;;;;;;;;;5032566;28;20225;-53
2023/10/12 01:25:21;;;;;;;21.53;16.27;;;;;;;;;;5032611;28;20236;-53
2023/10/12 01:27:47;;;;;;;17.73;14.13;;;;;;;;;;5032564;28;20201;-53
2023/10/12 01:30:20;;;;;;;14.30;11.40;;;;;;;;;;5032426;28;20205;-52
2023/10/12 01:32:54;;;;;;;15.33;8.13;;;;;;;;;;5032574;28;20192;-52
2023/10/12 01:35:32;;;;;;;8.37;6.00;;;;;;;;;;5031902;28;20229;-53
2023/10/12 01:38:08;;;;;;;9.20;4.83;;;;;;;;;;5032436;28;20272;-53
2023/10/12 01:43:12;;;;;;;5.83;3.73;;;;;;;;;;5032165;28;20228;-53
2023/10/12 01:45:41;;;;;;;5.27;3.10;;;;;;;;;;5032254;28;20281;-52
2023/10/12 01:48:11;;;;;;;3.20;2.33;;;;;;;;;;5032485;28;20205;-53
2023/10/12 01:50:37;;;;;;;4.03;2.57;;;;;;;;;;5032287;28;20286;-52
2023/10/12 01:53:08;;;;;;;5.20;2.60;;;;;;;;;;5032201;28;20646;-52
2023/10/12 01:55:35;;;;;;;3.50;2.30;;;;;;;;;;5032185;28;20251;-52
2023/10/12 01:58:04;;;;;;;3.00;2.20;;;;;;;;;;5032030;28;20196;-52
2023/10/12 02:00:41;;;;;;;4.00;2.37;;;;;;;;;;5032172;28;20217;-52
2023/10/12 02:06:02;;;;;;;2.90;2.37;;;;;;;;;;5031975;28;20615;-52
2023/10/12 02:08:32;;;;;;;3.27;2.50;;;;;;;;;;5031794;28;20207;-52
2023/10/12 02:11:06;;;;;;;3.17;2.33;;;;;;;;;;5031936;28;20216;-52
2023/10/12 02:13:34;;;;;;;4.17;2.33;;;;;;;;;;5031964;28;20582;-52
2023/10/12 02:16:00;;;;;;;2.97;2.57;;;;;;;;;;5032083;28;20200;-52
2023/10/12 02:18:27;;;;;;;3.87;2.60;;;;;;;;;;5031675;28;20276;-52
2023/10/12 02:21:26;;;;;;;4.30;2.33;;;;;;;;;;5031721;28;20572;-52
2023/10/12 02:24:29;;;;;;;4.07;2.37;;;;;;;;;;5030523;28;20219;-52
2023/10/12 02:31:34;;;;;;;3.00;2.30;;;;;;;;;;5031736;28;20193;-52
2023/10/12 02:34:02;;;;;;;4.00;2.53;;;;;;;;;;5031597;28;20219;-52
2023/10/12 02:36:28;;;;;;;3.63;2.70;;;;;;;;;;5031365;28;20224;-52
2023/10/12 02:38:59;;;;;;;3.93;2.90;;;;;;;;;;5031366;28;20203;-52
2023/10/12 02:41:26;;;;;;;4.43;2.93;;;;;;;;;;5031390;28;20450;-53
2023/10/12 02:43:55;;;;;;;3.77;2.60;;;;;;;;;;5031418;28;20582;-52
2023/10/12 02:46:22;;;;;;;3.73;3.03;;;;;;;;;;5031442;28;20272;-52
2023/10/12 02:48:50;;;;;;;3.60;2.63;;;;;;;;;;5035699;28;20207;-52
2023/10/12 02:51:17;;;;;;;3.63;2.80;;;;;;;;;;5035534;28;20633;-52
2023/10/12 02:53:44;;;;;;;4.80;2.60;;;;;;;;;;5035453;28;20197;-52
2023/10/12 02:56:11;;;;;;;3.70;1.90;;;;;;;;;;5035330;28;20204;-52
2023/10/12 02:58:37;;;;;;;3.33;2.17;;;;;;;;;;5035455;28;20664;-52
2023/10/12 03:01:12;;;;;;;3.90;1.87;;;;;;;;;;5035492;28;20193;-52
2023/10/12 03:03:39;;;;;;;4.97;2.03;;;;;;;;;;5035338;28;20195;-52
2023/10/12 03:06:11;;;;;;;4.47;2.13;;;;;;;;;;5035267;28;20196;-52
2023/10/12 03:11:25;;;;;;;5.97;2.23;;;;;;;;;;5035120;28;20219;-52
2023/10/12 03:14:00;;;;;;;7.33;2.30;;;;;;;;;;5035080;28;20205;-52
2023/10/12 03:16:32;;;;;;;4.23;2.10;;;;;;;;;;5034940;28;20215;-52
2023/10/12 03:19:00;;;;;;;5.47;2.33;;;;;;;;;;5035058;28;20243;-52
2023/10/12 03:21:27;;;;;;;6.67;2.10;;;;;;;;;;5034772;28;20224;-52
2023/10/12 03:23:56;;;;;;;7.47;2.23;;;;;;;;;;5034886;28;20204;-52
2023/10/12 03:28:50;;;;;;;5.13;1.60;;;;;;;;;;5034946;28;20209;-52
2023/10/12 03:31:23;;;;;;;4.33;1.90;;;;;;;;;;5034733;28;20202;-52
2023/10/12 03:33:56;;;;;;;5.47;2.20;;;;;;;;;;5034894;28;20207;-52
2023/10/12 03:36:23;;;;;;;4.57;1.93;;;;;;;;;;5034661;28;20221;-52
2023/10/12 03:39:06;;;;;;;5.67;2.10;;;;;;;;;;5034599;28;20200;-52
2023/10/12 03:42:12;;;;;;;5.83;2.07;;;;;;;;;;5033287;28;20565;-52
2023/10/12 03:52:19;;;;;;;5.90;1.70;;;;;;;;;;5033381;28;20189;-52
2023/10/12 03:54:55;;;;;;;5.00;1.80;;;;;;;;;;5033159;28;20670;-52
2023/10/12 03:57:35;;;;;;;4.57;1.90;;;;;;;;;;5032695;28;20231;-52
2023/10/12 04:02:39;;;;;;;2.63;1.53;;;;;;;;;;5031219;28;20228;-52
2023/10/12 04:05:21;;;;;;;4.53;1.90;;;;;;;;;;5033133;28;20234;-52
2023/10/12 04:13:08;;;;;;;6.40;2.13;;;;;;;;;;5032764;28;20610;-53
2023/10/12 04:16:05;;;;;;;6.00;1.70;;;;;;;;;;5032788;28;20211;-53
2023/10/12 04:18:28;;;;;;;4.57;2.60;;;;;;;;;;5032641;28;20190;-53
2023/10/12 04:20:57;;;;;;;3.67;2.00;;;;;;;;;;5032796;28;20279;-53
2023/10/12 04:26:22;;;;;;;3.87;1.90;;;;;;;;;;5031006;28;20192;-53
2023/10/12 04:28:52;;;;;;;3.77;1.57;;;;;;;;;;5032444;28;20192;-53
2023/10/12 04:31:33;;;;;;;4.00;2.10;;;;;;;;;;5030879;28;20584;-53
2023/10/12 04:34:06;;;;;;;4.20;1.90;;;;;;;;;;5032418;28;20201;-52
2023/10/12 04:36:44;;;;;;;4.47;1.90;;;;;;;;;;5032511;28;20239;-52
2023/10/12 04:46:51;;;;;;;5.53;1.97;;;;;;;;;;5033451;28;20287;-53
2023/10/12 04:51:50;;;;;;;3.07;1.70;;;;;;;;;;5031582;28;20200;-53
2023/10/12 04:54:17;;;;;;;4.23;1.70;;;;;;;;;;5033085;28;20205;-53
2023/10/12 04:56:56;;;;;;;4.87;2.00;;;;;;;;;;5033027;28;20208;-53
2023/10/12 04:59:29;;;;;;;5.27;1.90;;;;;;;;;;5032953;28;20267;-53
2023/10/12 05:09:37;;;;;;;4.03;1.83;;;;;;;;;;5032102;28;20193;-53
2023/10/12 05:12:04;;;;;;;7.13;2.07;;;;;;;;;;5032828;28;20217;-53
2023/10/12 05:14:31;;;;;;;3.63;2.00;;;;;;;;;;5032562;28;20205;-53
2023/10/12 05:16:57;;;;;;;5.37;2.03;;;;;;;;;;5031922;28;20584;-53
2023/10/12 05:19:24;;;;;;;3.87;2.33;;;;;;;;;;5032378;28;20703;-53
2023/10/12 05:21:50;;;;;;;2.80;1.70;;;;;;;;;;5032434;28;20225;-53
2023/10/12 05:24:16;;;;;;;5.57;2.10;;;;;;;;;;5032184;28;20216;-53
2023/10/12 05:26:51;;;;;;;4.50;1.83;;;;;;;;;;5032463;28;20224;-53
2023/10/12 05:32:06;;;;;;;2.83;1.70;;;;;;;;;;5029106;28;20189;-53
2023/10/12 05:34:32;;;;;;;3.47;1.93;;;;;;;;;;5030557;28;20685;-53
2023/10/12 05:37:00;;;;;;;6.70;2.00;;;;;;;;;;5032192;28;20224;-53
2023/10/12 05:39:27;;;;;;;3.53;1.80;;;;;;;;;;5032039;28;20241;-53
2023/10/12 05:41:59;;;;;;;5.40;2.17;;;;;;;;;;5032170;28;20231;-54
2023/10/12 05:44:26;;;;;;;4.20;2.10;;;;;;;;;;5032008;28;20630;-53
2023/10/12 05:46:59;;;;;;;4.07;2.07;;;;;;;;;;5032123;28;20256;-53
2023/10/12 05:49:25;;;;;;;4.07;1.97;;;;;;;;;;5031986;28;20208;-52
2023/10/12 05:51:52;;;;;;;5.90;2.50;;;;;;;;;;5031912;28;20734;-53
2023/10/12 05:54:23;;;;;;;4.23;1.87;;;;;;;;;;5031983;28;20220;-54
2023/10/12 05:56:49;;;;;;;5.57;2.07;;;;;;;;;;5032270;28;20688;-54
2023/10/12 05:59:15;;;;;;;6.67;2.33;;;;;;;;;;5031778;28;20207;-54
2023/10/12 06:01:45;;;;;;;7.53;2.13;;;;;;;;;;5031547;28;20499;-54
2023/10/12 06:04:19;;;;;;;4.80;1.90;;;;;;;;;;5031579;28;20201;-54
2023/10/12 06:06:46;;;;;;;5.63;2.10;;;;;;;;;;5031715;28;20276;-54
2023/10/12 06:09:13;;;;;;;5.30;1.83;;;;;;;;;;5031024;28;20205;-53
2023/10/12 06:11:41;;;;;;;6.07;2.00;;;;;;;;;;5031182;28;20537;-54
2023/10/12 06:14:08;;;;;;;5.30;2.33;;;;;;;;;;5031569;28;20231;-54
2023/10/12 06:16:40;;;;;;;6.00;2.20;;;;;;;;;;5031484;28;20197;-54
2023/10/12 06:19:06;;;;;;;7.53;2.50;;;;;;;;;;5031516;28;20251;-54
2023/10/12 06:21:42;;;;;;;4.97;2.30;;;;;;;;;;5031385;28;20197;-53
2023/10/12 06:24:11;;;;;;;5.77;2.00;;;;;;;;;;5031652;28;20224;-54
2023/10/12 06:26:38;;;;;;;6.13;2.13;;;;;;;;;;5027902;28;20201;-54
2023/10/12 06:29:07;;;;;;;7.50;2.40;;;;;;;;;;5029923;28;20201;-54
2023/10/12 06:31:33;;;;;;;4.87;2.30;;;;;;;;;;5031503;28;20200;-53
2023/10/12 06:34:03;;;;;;;7.10;2.50;;;;;;;;;;5031397;28;20201;-52
2023/10/12 06:36:38;;;;;;;5.07;2.50;;;;;;;;;;5031295;28;20229;-54
2023/10/12 06:41:58;;;;;;;5.47;2.30;;;;;;;;;;5031156;28;20287;-53
2023/10/12 06:44:33;;;;;;;5.77;2.00;;;;;;;;;;5031243;28;20209;-53
2023/10/12 06:47:24;;;;;;;5.00;2.20;;;;;;;;;;5031405;28;20212;-54
2023/10/12 06:49:51;;;;;;;5.30;2.13;;;;;;;;;;5031351;28;20300;-53
2023/10/12 06:52:19;;;;;;;4.17;2.30;;;;;;;;;;5031417;28;20207;-53
2023/10/12 06:54:49;;;;;;;5.30;2.10;;;;;;;;;;5031324;28;20255;-53
2023/10/12 07:00:16;;;;;;;10.83;3.60;;;;;;;;;;5028032;28;20242;-53
2023/10/12 07:02:51;;;;;;;6.60;2.50;;;;;;;;;;5031066;28;20313;-53
2023/10/12 07:05:20;;;;;;;7.13;2.60;;;;;;;;;;5029653;28;20690;-53
2023/10/12 07:07:51;;;;;;;6.50;2.23;;;;;;;;;;5031703;28;20204;-53
2023/10/12 07:10:28;;;;;;;6.17;2.40;;;;;;;;;;5031437;28;20549;-53
2023/10/12 07:12:59;;;;;;;5.63;1.70;;;;;;;;;;5031111;28;20744;-53
2023/10/12 07:15:31;;;;;;;5.67;2.37;;;;;;;;;;5031208;28;20204;-53
2023/10/12 07:17:57;;;;;;;8.53;2.63;;;;;;;;;;5031250;28;20228;-54
2023/10/12 07:20:40;;;;;;;7.90;2.40;;;;;;;;;;5031088;28;20204;-53
2023/10/12 07:23:14;;;;;;;7.70;2.10;;;;;;;;;;5031169;28;20300;-54
2023/10/12 07:25:43;;;;;;;5.43;1.80;;;;;;;;;;5029372;28;20275;-53
2023/10/12 07:28:16;;;;;;;5.90;2.17;;;;;;;;;;5027657;28;20291;-53
2023/10/12 07:30:43;;;;;;;4.83;2.00;;;;;;;;;;5031089;28;20209;-52
2023/10/12 07:33:09;;;;;;;5.03;2.40;;;;;;;;;;5032243;28;20193;-55
2023/10/12 07:35:38;;;;;;;5.73;2.37;;;;;;;;;;5034598;28;20605;-54
2023/10/12 07:38:25;;;;;;;7.27;2.50;;;;;;;;;;5034834;28;20200;-54
2023/10/12 07:41:00;;;;;;;4.93;2.53;;;;;;;;;;5034416;28;20312;-54
2023/10/12 07:43:26;;;;;;;6.43;2.87;;;;;;;;;;5034385;28;20741;-54
2023/10/12 07:45:53;;;;;;;7.60;2.37;;;;;;;;;;5034514;28;20204;-55
2023/10/12 07:48:39;;;;;;;5.90;2.60;;;;;;;;;;5034391;28;20205;-54
2023/10/12 07:51:17;;;;;;;5.07;2.43;;;;;;;;;;5032816;28;20204;-55
2023/10/12 07:53:43;;;;;;;5.87;2.70;;;;;;;;;;5034488;28;20197;-55
2023/10/12 07:56:16;;;;;;;7.83;3.20;;;;;;;;;;5034328;28;20801;-55
2023/10/12 07:58:42;;;;;;;5.77;2.80;;;;;;;;;;5034539;28;20231;-54
2023/10/12 08:01:39;;;;;;;7.53;2.63;;;;;;;;;;5034139;28;20255;-55
2023/10/12 08:04:00;;;;;;;7.57;3.10;;;;;;;;;;5033758;28;20263;-56
2023/10/12 08:06:42;;;;;;;6.27;3.40;;;;;;;;;;5032448;28;20613;-56
2023/10/12 08:11:54;;;;;;;7.63;3.40;;;;;;;;;;5034047;28;20193;-55
2023/10/12 08:17:25;;;;;;;7.23;3.20;;;;;;;;;;5034231;28;20197;-56
2023/10/12 08:19:39;;;;;;;6.90;3.33;;;;;;;;;;5034023;28;20200;-56
2023/10/12 08:22:09;;;;;;;5.30;3.20;;;;;;;;;;5034109;28;20228;-56
2023/10/12 08:24:36;;;;;;;9.63;3.83;;;;;;;;;;5033991;28;20201;-56
2023/10/12 08:27:06;;;;;;;8.87;3.73;;;;;;;;;;5034087;28;20251;-55
2023/10/12 08:39:39;;;;;;;8.33;4.27;;;;;;;;;;5033499;28;20236;-55
2023/10/12 08:43:09;;;;;;;6.10;3.70;;;;;;;;;;5033605;28;20277;-55
2023/10/12 08:45:09;;;;;;;7.40;4.40;;;;;;;;;;5027583;28;20765;-55
2023/10/12 08:50:25;;;;;;;6.83;5.17;;;;;;;;;;5033690;28;20201;-55
2023/10/12 08:52:52;;;;;;;9.90;4.93;;;;;;;;;;5036262;28;20201;-55
2023/10/12 08:55:19;;;;;;;5.43;4.70;;;;;;;;;;5033561;28;20205;-55
2023/10/12 08:57:55;;;;;;;8.90;5.47;;;;;;;;;;5033245;28;20244;-56
2023/10/12 09:03:06;;;;;;;7.60;4.10;;;;;;;;;;5032898;28;20696;-64
2023/10/12 09:05:33;;;;;;;6.57;4.60;;;;;;;;;;5041962;28;20275;-56
2023/10/12 09:11:13;;;;;;;5.23;3.67;;;;;;;;;;5052622;28;20192;-55
2023/10/12 09:13:45;;;;;;;10.53;4.37;;;;;;;;;;5052420;28;20231;-55
2023/10/12 09:16:14;;;;;;;6.10;4.60;;;;;;;;;;5052192;28;20276;-54
2023/10/12 09:18:44;;;;;;;6.53;3.97;;;;;;;;;;5052167;28;20644;-55
2023/10/12 09:26:34;;;;;;;8.27;4.07;;;;;;;;;;5052099;28;20189;-55
2023/10/12 09:36:43;;;;;;;6.37;2.93;;;;;;;;;;5051961;28;20706;-55
2023/10/12 09:39:14;;;;;;;7.90;3.00;;;;;;;;;;5051687;28;20229;-55
2023/10/12 09:41:41;;;;;;;4.80;2.77;;;;;;;;;;5051755;28;20574;-55
2023/10/12 09:44:11;;;;;;;9.57;3.23;;;;;;;;;;5052085;28;20283;-53
2023/10/12 09:46:46;;;;;;;6.90;2.73;;;;;;;;;;5051724;28;20201;-56
2023/10/12 09:49:24;;;;;;;9.20;3.43;;;;;;;;;;5051890;28;20276;-55
2023/10/12 09:51:54;;;;;;;6.10;2.70;;;;;;;;;;5051678;28;20285;-55
2023/10/12 09:54:28;;;;;;;5.97;2.60;;;;;;;;;;5051966;28;20297;-54
2023/10/12 09:56:58;;;;;;;7.10;2.97;;;;;;;;;;5051454;28;20223;-55
2023/10/12 09:59:29;;;;;;;8.70;2.87;;;;;;;;;;5051565;28;20280;-55
2023/10/12 10:02:03;;;;;;;6.77;2.80;;;;;;;;;;5051346;28;20666;-55
2023/10/12 10:04:29;;;;;;;11.17;3.00;;;;;;;;;;5051218;28;20197;-55
2023/10/12 10:07:17;;;;;;;9.97;2.90;;;;;;;;;;5051552;28;20304;-55
2023/10/12 10:09:46;;;;;;;7.57;2.60;;;;;;;;;;5051243;28;20358;-52
2023/10/12 10:12:15;;;;;;;7.13;2.20;;;;;;;;;;5051513;28;20234;-55
2023/10/12 10:14:51;;;;;;;6.30;2.47;;;;;;;;;;5051257;28;20223;-53
2023/10/12 10:17:23;;;;;;;9.10;2.73;;;;;;;;;;5051418;28;20682;-53
2023/10/12 10:20:03;;;;;;;5.13;2.30;;;;;;;;;;5051454;28;20189;-54
2023/10/12 10:22:33;;;;;;;5.93;2.20;;;;;;;;;;5051083;28;20694;-54
2023/10/12 10:24:59;;;;;;;7.03;2.43;;;;;;;;;;5051283;28;20226;-54
2023/10/12 10:27:32;;;;;;;5.57;2.33;;;;;;;;;;5050812;28;20209;-54
2023/10/12 10:30:13;;;;;;;9.83;3.20;;;;;;;;;;5051319;28;20201;-54
2023/10/12 10:32:39;;;;;;;6.47;2.30;;;;;;;;;;5051292;28;20609;-54
2023/10/12 10:35:18;;;;;;;7.87;2.50;;;;;;;;;;5051094;28;20247;-55
2023/10/12 10:37:57;;;;;;;6.37;2.60;;;;;;;;;;5050943;28;20257;-54
2023/10/12 10:40:39;;;;;;;5.60;2.03;;;;;;;;;;5050572;28;20240;-54
2023/10/12 10:43:08;;;;;;;6.70;2.40;;;;;;;;;;5051167;28;20227;-54
2023/10/12 10:45:38;;;;;;;4.93;2.10;;;;;;;;;;5051121;28;20200;-53
2023/10/12 10:48:04;;;;;;;5.70;2.47;;;;;;;;;;5051090;28;20201;-53
2023/10/12 10:50:33;;;;;;;5.40;2.03;;;;;;;;;;5048845;28;20655;-54
2023/10/12 10:53:00;;;;;;;5.63;2.33;;;;;;;;;;5049338;28;20551;-56
2023/10/12 10:55:30;;;;;;;6.57;2.33;;;;;;;;;;5048151;28;20550;-56
2023/10/12 10:57:57;;;;;;;133.90;84.47;;;;;;;;;;5070631;28;20610;-55
2023/10/12 11:00:33;;;;;;;14.73;11.47;;;;;;;;;;5069492;28;20200;-55
2023/10/12 11:03:03;;;;;;;16.77;12.67;;;;;;;;;;5069428;28;20235;-55
2023/10/12 11:05:29;;;;;;;7.67;2.70;;;;;;;;;;5071224;28;20203;-55
2023/10/12 11:07:59;;;;;;;5.67;2.27;;;;;;;;;;5072067;28;20548;-55
2023/10/12 11:11:14;;;;;;;38.60;28.93;;;;;;;;;;5075011;28;20195;-56
2023/10/12 11:13:20;;;;;;;12.10;8.00;;;;;;;;;;5075077;28;20248;-55
2023/10/12 11:15:46;;;;;;;8.80;3.00;;;;;;;;;;5074956;28;20184;-55
2023/10/12 11:18:17;;;;;;;22.87;17.97;;;;;;;;;;5074939;28;20199;-55
2023/10/12 11:20:46;;;;;;;9.27;2.90;;;;;;;;;;5074637;28;20207;-55
2023/10/12 11:23:12;;;;;;;16.90;13.33;;;;;;;;;;5074635;28;20309;-55
2023/10/12 11:25:41;;;;;;;26.33;23.47;;;;;;;;;;5074552;28;20199;-55
2023/10/12 11:28:19;;;;;;;12.10;6.93;;;;;;;;;;5074604;28;20437;-55
2023/10/12 11:30:45;;;;;;;13.00;7.60;;;;;;;;;;5074348;28;20202;-55
2023/10/12 11:33:11;;;;;;;16.07;7.97;;;;;;;;;;5074496;28;20186;-55
2023/10/12 11:35:43;;;;;;;14.50;9.77;;;;;;;;;;5074683;28;20218;-55
2023/10/12 11:38:15;;;;;;;11.93;7.00;;;;;;;;;;5074680;28;20210;-55
2023/10/12 11:40:41;;;;;;;9.50;2.77;;;;;;;;;;5074302;28;20239;-55
2023/10/12 11:43:07;;;;;;;14.60;10.50;;;;;;;;;;5074300;28;20792;-55
2023/10/12 11:45:33;;;;;;;8.77;5.60;;;;;;;;;;5074366;28;20287;-56
2023/10/12 11:48:18;;;;;;;6.53;2.27;;;;;;;;;;5074318;28;20598;-56
2023/10/12 11:50:48;;;;;;;7.67;2.77;;;;;;;;;;5074509;28;20267;-56
2023/10/12 11:53:17;;;;;;;16.73;9.17;;;;;;;;;;5074205;28;20206;-55
2023/10/12 11:55:44;;;;;;;5.70;3.10;;;;;;;;;;5073882;28;20564;-55
2023/10/12 11:58:13;;;;;;;10.27;7.10;;;;;;;;;;5074170;28;20282;-55
2023/10/12 12:00:44;;;;;;;8.50;4.60;;;;;;;;;;5073874;28;20256;-55
2023/10/12 12:03:11;;;;;;;12.07;6.67;;;;;;;;;;5074046;28;20646;-55
2023/10/12 12:05:37;;;;;;;7.10;2.30;;;;;;;;;;5074050;28;20203;-57
2023/10/12 12:08:14;;;;;;;9.70;3.20;;;;;;;;;;5074201;28;20624;-56
2023/10/12 12:13:16;;;;;;;7.47;2.67;;;;;;;;;;5074035;28;20195;-55
2023/10/12 12:15:45;;;;;;;15.13;2.50;;;;;;;;;;5073652;28;20194;-56
2023/10/12 12:18:21;;;;;;;4.93;2.13;;;;;;;;;;5073880;28;20193;-56
2023/10/12 12:20:47;;;;;;;6.87;2.30;;;;;;;;;;5073927;28;20314;-56
2023/10/12 12:23:15;;;;;;;6.23;2.20;;;;;;;;;;5073677;28;20249;-55
2023/10/12 12:25:41;;;;;;;7.70;2.70;;;;;;;;;;5073683;28;20212;-56
2023/10/12 12:28:07;;;;;;;6.93;2.37;;;;;;;;;;5073811;28;20223;-56
2023/10/12 12:30:35;;;;;;;8.47;2.60;;;;;;;;;;5073644;28;20239;-55
2023/10/12 12:33:03;;;;;;;6.77;2.17;;;;;;;;;;5073516;28;20657;-56
2023/10/12 12:35:29;;;;;;;5.60;1.90;;;;;;;;;;5073356;28;20302;-55
2023/10/12 12:38:05;;;;;;;4.93;2.03;;;;;;;;;;5073436;28;20611;-55
2023/10/12 12:40:38;;;;;;;6.50;2.10;;;;;;;;;;5073339;28;20237;-55
2023/10/12 12:43:07;;;;;;;6.53;2.30;;;;;;;;;;5071129;28;20251;-55
2023/10/12 12:45:35;;;;;;;3.90;2.00;;;;;;;;;;5073081;28;20201;-56
2023/10/12 12:48:01;;;;;;;6.63;2.40;;;;;;;;;;5073038;28;20199;-56
2023/10/12 12:50:28;;;;;;;10.00;2.27;;;;;;;;;;5073068;28;20253;-56
2023/10/12 12:52:54;;;;;;;5.93;1.90;;;;;;;;;;5072845;28;20536;-56
2023/10/12 12:55:22;;;;;;;6.17;1.90;;;;;;;;;;5072902;28;20248;-55
2023/10/12 12:57:49;;;;;;;5.53;2.30;;;;;;;;;;5072960;28;20209;-56
2023/10/12 13:00:21;;;;;;;5.57;2.40;;;;;;;;;;5073006;28;20215;-55
2023/10/12 13:02:47;;;;;;;7.50;2.37;;;;;;;;;;5072759;28;20226;-56
2023/10/12 13:05:14;;;;;;;5.53;1.97;;;;;;;;;;5072683;28;20207;-56
2023/10/12 13:07:40;;;;;;;7.53;2.33;;;;;;;;;;5072538;28;20281;-57
2023/10/12 13:10:11;;;;;;;6.60;2.00;;;;;;;;;;5072524;28;20208;-57
2023/10/12 13:12:37;;;;;;;5.53;2.10;;;;;;;;;;5072545;28;20201;-57
2023/10/12 13:15:09;;;;;;;6.60;2.27;;;;;;;;;;5072743;28;20233;-57
2023/10/12 13:17:35;;;;;;;8.03;2.50;;;;;;;;;;5072510;28;20215;-57
2023/10/12 13:20:01;;;;;;;6.70;2.20;;;;;;;;;;5072561;28;20191;-57
2023/10/12 13:22:27;;;;;;;6.00;1.93;;;;;;;;;;5072242;28;22165;-57
2023/10/12 13:24:56;;;;;;;8.73;2.17;;;;;;;;;;5072183;28;20236;-57
2023/10/12 13:27:23;;;;;;;6.37;2.40;;;;;;;;;;5072417;28;20199;-57
2023/10/12 13:29:49;;;;;;;11.83;3.10;;;;;;;;;;5072310;28;20221;-57
2023/10/12 13:32:21;;;;;;;7.83;2.20;;;;;;;;;;5071500;28;20208;-57
2023/10/12 13:34:47;;;;;;;8.50;2.20;;;;;;;;;;5072271;28;20204;-57
2023/10/12 13:37:13;;;;;;;6.03;2.10;;;;;;;;;;5072074;28;20307;-57
2023/10/12 13:39:39;;;;;;;12.93;2.83;;;;;;;;;;5071639;28;20314;-57
2023/10/12 13:42:11;;;;;;;9.87;2.50;;;;;;;;;;5070392;28;20246;-57
2023/10/12 13:44:39;;;;;;;6.93;2.10;;;;;;;;;;5071852;28;20231;-57
2023/10/12 13:47:07;;;;;;;7.60;2.60;;;;;;;;;;5071945;28;20211;-57
2023/10/12 13:49:37;;;;;;;12.33;2.67;;;;;;;;;;5071869;28;20209;-57
2023/10/12 13:52:09;;;;;;;9.53;2.80;;;;;;;;;;5071947;28;20500;-57
2023/10/12 13:54:35;;;;;;;9.67;2.70;;;;;;;;;;5071637;28;20195;-57
2023/10/12 13:57:02;;;;;;;8.07;2.43;;;;;;;;;;5071770;28;20229;-57
2023/10/12 13:59:28;;;;;;;7.47;2.40;;;;;;;;;;5071489;28;20271;-57
2023/10/12 14:01:56;;;;;;;6.77;2.60;;;;;;;;;;5071726;28;20210;-56
2023/10/12 14:04:28;;;;;;;7.97;2.30;;;;;;;;;;5071474;28;20259;-57
2023/10/12 14:07:00;;;;;;;6.33;2.37;;;;;;;;;;5071520;28;20196;-57
2023/10/12 14:09:27;;;;;;;5.80;2.40;;;;;;;;;;5071419;28;20208;-56
2023/10/12 14:11:54;;;;;;;7.63;2.60;;;;;;;;;;5071511;28;20565;-57
2023/10/12 14:14:20;;;;;;;6.77;1.90;;;;;;;;;;5071569;28;20246;-57
2023/10/12 14:16:46;;;;;;;5.07;2.33;;;;;;;;;;5071419;28;20196;-57
2023/10/12 14:19:16;;;;;;;5.07;2.00;;;;;;;;;;5071354;28;20403;-57
2023/10/12 14:21:42;;;;;;;3.73;1.90;;;;;;;;;;5071365;28;20866;-57
2023/10/12 14:24:09;;;;;;;9.23;2.50;;;;;;;;;;5071323;28;20236;-57
2023/10/12 14:26:37;;;;;;;8.17;2.40;;;;;;;;;;5071338;28;20206;-57
2023/10/12 14:29:05;;;;;;;7.30;2.30;;;;;;;;;;5071430;28;20203;-56
2023/10/12 14:31:32;;;;;;;6.47;2.60;;;;;;;;;;5071357;28;20739;-57
2023/10/12 14:33:59;;;;;;;6.50;2.30;;;;;;;;;;5071468;28;20257;-56
2023/10/12 14:36:26;;;;;;;6.73;2.27;;;;;;;;;;5071579;28;20220;-55
2023/10/12 14:38:56;;;;;;;6.63;2.30;;;;;;;;;;5071503;28;20216;-55
2023/10/12 14:41:25;;;;;;;6.17;2.67;;;;;;;;;;5071806;28;20270;-55
2023/10/12 14:43:51;;;;;;;11.07;2.73;;;;;;;;;;5074096;28;20698;-55
2023/10/12 14:46:20;;;;;;;10.80;2.90;;;;;;;;;;5075921;28;20200;-55
2023/10/12 14:48:49;;;;;;;6.73;2.23;;;;;;;;;;5075686;28;20215;-56
2023/10/12 14:51:25;;;;;;;8.13;3.10;;;;;;;;;;5075633;28;20724;-55
2023/10/12 14:53:51;;;;;;;6.13;2.40;;;;;;;;;;5075713;28;20596;-55
2023/10/12 14:56:23;;;;;;;7.10;2.20;;;;;;;;;;5075602;28;20204;-56
2023/10/12 14:58:53;;;;;;;5.20;2.70;;;;;;;;;;5075678;28;20287;-56
2023/10/12 15:01:21;;;;;;;10.43;3.33;;;;;;;;;;5075734;28;20203;-56
2023/10/12 15:03:47;;;;;;;9.13;3.90;;;;;;;;;;5075466;28;20235;-57
2023/10/12 15:06:13;;;;;;;7.43;3.50;;;;;;;;;;5075529;28;20197;-55
2023/10/12 15:08:40;;;;;;;7.37;3.03;;;;;;;;;;5075288;28;20202;-55
2023/10/12 15:11:06;;;;;;;11.00;3.53;;;;;;;;;;5075523;28;20294;-55
2023/10/12 15:13:32;;;;;;;9.27;3.57;;;;;;;;;;5075458;28;20269;-55
2023/10/12 15:16:00;;;;;;;6.97;2.90;;;;;;;;;;5075442;28;20234;-55
2023/10/12 15:18:26;;;;;;;6.20;3.00;;;;;;;;;;5075185;28;20892;-54
2023/10/12 15:20:52;;;;;;;10.90;3.43;;;;;;;;;;5074928;28;20195;-54
2023/10/12 15:23:19;;;;;;;6.03;2.80;;;;;;;;;;5075220;28;20227;-54
2023/10/12 15:25:45;;;;;;;6.50;3.43;;;;;;;;;;5075016;28;20211;-54
2023/10/12 15:28:11;;;;;;;10.27;4.13;;;;;;;;;;5075150;28;20196;-55
2023/10/12 15:30:38;;;;;;;6.87;3.67;;;;;;;;;;5074874;28;20294;-55
2023/10/12 15:33:07;;;;;;;7.47;3.23;;;;;;;;;;5075049;28;20203;-55
2023/10/12 15:35:33;;;;;;;12.33;3.83;;;;;;;;;;5074769;28;20736;-56
2023/10/12 15:37:59;;;;;;;7.83;3.77;;;;;;;;;;5074764;28;20230;-58
2023/10/12 15:40:26;;;;;;;5.97;4.20;;;;;;;;;;5074405;28;20668;-57
2023/10/12 15:42:53;;;;;;;6.50;3.40;;;;;;;;;;5074629;28;20310;-57
2023/10/12 15:45:20;;;;;;;7.43;3.27;;;;;;;;;;5074868;28;20199;-54
2023/10/12 15:47:46;;;;;;;9.80;3.47;;;;;;;;;;5074489;28;20670;-56
2023/10/12 15:50:17;;;;;;;9.27;4.10;;;;;;;;;;5074675;28;20203;-54
2023/10/12 15:52:43;;;;;;;7.30;3.40;;;;;;;;;;5074513;28;20200;-55
2023/10/12 15:55:12;;;;;;;8.40;3.93;;;;;;;;;;5073920;28;20205;-55
2023/10/12 15:57:38;;;;;;;6.90;3.30;;;;;;;;;;5073781;28;20200;-55
2023/10/12 16:00:08;;;;;;;9.80;3.90;;;;;;;;;;5074058;28;20204;-55
2023/10/12 16:02:35;;;;;;;6.30;3.17;;;;;;;;;;5073474;28;20298;-55
2023/10/12 16:05:05;;;;;;;8.33;4.37;;;;;;;;;;5073840;28;20208;-54
2023/10/12 16:07:33;;;;;;;10.13;4.13;;;;;;;;;;5074149;28;20292;-55
2023/10/12 16:10:00;;;;;;;7.53;4.70;;;;;;;;;;5073535;28;20210;-55
2023/10/12 16:12:26;;;;;;;8.50;4.53;;;;;;;;;;5074217;28;20204;-54
2023/10/12 16:14:54;;;;;;;6.67;4.37;;;;;;;;;;5074084;28;20653;-54
2023/10/12 16:17:24;;;;;;;8.03;4.67;;;;;;;;;;5074322;28;20191;-55
2023/10/12 16:19:50;;;;;;;5.57;3.83;;;;;;;;;;5073896;28;20586;-55
2023/10/12 16:22:16;;;;;;;8.53;3.83;;;;;;;;;;5074129;28;20210;-54
2023/10/12 16:24:44;;;;;;;7.27;4.30;;;;;;;;;;5073863;28;20235;-55
2023/10/12 16:27:10;;;;;;;6.27;3.53;;;;;;;;;;5074012;28;20200;-55
2023/10/12 16:29:37;;;;;;;6.17;4.20;;;;;;;;;;5073848;28;20191;-55
2023/10/12 16:32:04;;;;;;;6.97;4.30;;;;;;;;;;5074056;28;20210;-55
2023/10/12 16:34:30;;;;;;;9.47;3.80;;;;;;;;;;5058594;28;20240;-56
2023/10/12 16:36:56;;;;;;;7.60;4.43;;;;;;;;;;5047813;28;20859;-55